sensor_id;sensor_type;location;lat;lon;timestamp;temperature;humidity
26623;DHT22;14254;50.968;5.366;2023-06-04T00:00:32;14.70;92.10
26623;DHT22;14254;50.968;5.366;2023-06-04T00:02:57;14.50;92.40
26623;DHT22;14254;50.968;5.366;2023-06-04T00:05:23;14.40;93.10
26623;DHT22;14254;50.968;5.366;2023-06-04T00:07:51;14.40;93.20
26623;DHT22;14254;50.968;5.366;2023-06-04T00:10:17;14.40;93.40
26623;DHT22;14254;50.968;5.366;2023-06-04T00:12:43;14.30;94.10
26623;DHT22;14254;50.968;5.366;2023-06-04T00:15:09;14.20;94.20
26623;DHT22;14254;50.968;5.366;2023-06-04T00:17:35;14.20;94.30
26623;DHT22;14254;50.968;5.366;2023-06-04T00:20:01;14.20;94.60
26623;DHT22;14254;50.968;5.366;2023-06-04T00:22:26;14.20;94.20
26623;DHT22;14254;50.968;5.366;2023-06-04T00:24:52;14.10;94.50
26623;DHT22;14254;50.968;5.366;2023-06-04T00:27:18;14.10;94.50
26623;DHT22;14254;50.968;5.366;2023-06-04T00:29:43;14.10;94.30
26623;DHT22;14254;50.968;5.366;2023-06-04T00:32:09;13.90;94.80
26623;DHT22;14254;50.968;5.366;2023-06-04T00:34:35;13.90;95.20
26623;DHT22;14254;50.968;5.366;2023-06-04T00:37:01;13.80;95.30
26623;DHT22;14254;50.968;5.366;2023-06-04T00:39:27;13.70;95.60
26623;DHT22;14254;50.968;5.366;2023-06-04T00:41:52;13.70;95.90
26623;DHT22;14254;50.968;5.366;2023-06-04T00:44:18;13.80;96.60
26623;DHT22;14254;50.968;5.366;2023-06-04T00:46:47;13.70;96.70
26623;DHT22;14254;50.968;5.366;2023-06-04T00:49:13;13.80;96.20
26623;DHT22;14254;50.968;5.366;2023-06-04T00:51:38;13.70;96.00
26623;DHT22;14254;50.968;5.366;2023-06-04T00:54:04;13.50;96.50
26623;DHT22;14254;50.968;5.366;2023-06-04T00:56:37;13.50;97.20
26623;DHT22;14254;50.968;5.366;2023-06-04T00:59:05;13.40;97.40
26623;DHT22;14254;50.968;5.366;2023-06-04T01:02:00;13.30;97.80
26623;DHT22;14254;50.968;5.366;2023-06-04T01:05:06;13.20;98.00
26623;DHT22;14254;50.968;5.366;2023-06-04T01:07:35;13.10;98.80
26623;DHT22;14254;50.968;5.366;2023-06-04T01:10:02;13.00;99.60
26623;DHT22;14254;50.968;5.366;2023-06-04T01:12:27;13.00;99.90
26623;DHT22;14254;50.968;5.366;2023-06-04T01:14:53;13.00;99.60
26623;DHT22;14254;50.968;5.366;2023-06-04T01:17:38;13.00;99.80
26623;DHT22;14254;50.968;5.366;2023-06-04T01:20:29;13.00;99.90
26623;DHT22;14254;50.968;5.366;2023-06-04T01:25:40;12.90;99.90
26623;DHT22;14254;50.968;5.366;2023-06-04T01:28:08;12.90;99.90
26623;DHT22;14254;50.968;5.366;2023-06-04T01:30:37;12.90;99.90
26623;DHT22;14254;50.968;5.366;2023-06-04T01:33:12;12.80;99.90
26623;DHT22;14254;50.968;5.366;2023-06-04T01:35:38;12.80;99.90
26623;DHT22;14254;50.968;5.366;2023-06-04T01:38:04;12.80;99.90
26623;DHT22;14254;50.968;5.366;2023-06-04T01:40:30;12.80;99.90
26623;DHT22;14254;50.968;5.366;2023-06-04T01:42:56;12.80;99.90
26623;DHT22;14254;50.968;5.366;2023-06-04T01:45:22;12.80;99.90
26623;DHT22;14254;50.968;5.366;2023-06-04T01:47:48;12.70;99.90
26623;DHT22;14254;50.968;5.366;2023-06-04T01:50:15;12.80;99.90
26623;DHT22;14254;50.968;5.366;2023-06-04T01:52:40;12.80;99.90
26623;DHT22;14254;50.968;5.366;2023-06-04T01:55:08;12.70;99.90
26623;DHT22;14254;50.968;5.366;2023-06-04T01:57:34;12.70;99.90
26623;DHT22;14254;50.968;5.366;2023-06-04T02:00:08;12.60;99.90
26623;DHT22;14254;50.968;5.366;2023-06-04T02:02:36;12.50;99.90
26623;DHT22;14254;50.968;5.366;2023-06-04T02:05:05;12.60;99.90
26623;DHT22;14254;50.968;5.366;2023-06-04T02:07:39;12.50;99.90
26623;DHT22;14254;50.968;5.366;2023-06-04T02:10:11;12.50;99.90
26623;DHT22;14254;50.968;5.366;2023-06-04T02:12:52;12.50;99.90
26623;DHT22;14254;50.968;5.366;2023-06-04T02:15:18;12.40;99.90
26623;DHT22;14254;50.968;5.366;2023-06-04T02:17:43;12.30;99.90
26623;DHT22;14254;50.968;5.366;2023-06-04T02:20:11;12.30;99.90
26623;DHT22;14254;50.968;5.366;2023-06-04T02:22:37;12.30;99.90
26623;DHT22;14254;50.968;5.366;2023-06-04T02:25:04;12.20;99.90
26623;DHT22;14254;50.968;5.366;2023-06-04T02:27:30;12.30;99.90
26623;DHT22;14254;50.968;5.366;2023-06-04T02:29:56;12.20;99.90
26623;DHT22;14254;50.968;5.366;2023-06-04T02:32:21;12.20;99.90
26623;DHT22;14254;50.968;5.366;2023-06-04T02:34:47;12.20;99.90
26623;DHT22;14254;50.968;5.366;2023-06-04T02:37:14;12.20;99.90
26623;DHT22;14254;50.968;5.366;2023-06-04T02:39:40;12.00;99.90
26623;DHT22;14254;50.968;5.366;2023-06-04T02:42:06;11.90;99.90
26623;DHT22;14254;50.968;5.366;2023-06-04T02:44:32;11.90;99.90
26623;DHT22;14254;50.968;5.366;2023-06-04T02:46:57;11.90;99.90
26623;DHT22;14254;50.968;5.366;2023-06-04T02:49:23;11.90;99.90
26623;DHT22;14254;50.968;5.366;2023-06-04T02:51:49;11.80;99.90
26623;DHT22;14254;50.968;5.366;2023-06-04T02:54:15;11.70;99.90
26623;DHT22;14254;50.968;5.366;2023-06-04T02:56:42;11.80;99.90
26623;DHT22;14254;50.968;5.366;2023-06-04T02:59:09;11.90;99.90
26623;DHT22;14254;50.968;5.366;2023-06-04T03:01:35;11.80;99.90
26623;DHT22;14254;50.968;5.366;2023-06-04T03:04:01;11.70;99.90
26623;DHT22;14254;50.968;5.366;2023-06-04T03:06:30;11.70;99.90
26623;DHT22;14254;50.968;5.366;2023-06-04T03:08:57;11.80;99.90
26623;DHT22;14254;50.968;5.366;2023-06-04T03:11:23;11.70;99.90
26623;DHT22;14254;50.968;5.366;2023-06-04T03:13:49;11.60;99.90
26623;DHT22;14254;50.968;5.366;2023-06-04T03:16:17;11.60;99.90
26623;DHT22;14254;50.968;5.366;2023-06-04T03:18:43;11.50;99.90
26623;DHT22;14254;50.968;5.366;2023-06-04T03:21:10;11.50;99.90
26623;DHT22;14254;50.968;5.366;2023-06-04T03:23:39;11.40;99.90
26623;DHT22;14254;50.968;5.366;2023-06-04T03:26:05;11.40;99.90
26623;DHT22;14254;50.968;5.366;2023-06-04T03:28:32;11.40;99.90
26623;DHT22;14254;50.968;5.366;2023-06-04T03:30:58;11.40;99.90
26623;DHT22;14254;50.968;5.366;2023-06-04T03:33:24;11.40;99.90
26623;DHT22;14254;50.968;5.366;2023-06-04T03:35:53;11.50;99.90
26623;DHT22;14254;50.968;5.366;2023-06-04T03:38:19;11.40;99.90
26623;DHT22;14254;50.968;5.366;2023-06-04T03:40:45;11.40;99.90
26623;DHT22;14254;50.968;5.366;2023-06-04T03:43:11;11.40;99.90
26623;DHT22;14254;50.968;5.366;2023-06-04T03:45:36;11.40;99.90
26623;DHT22;14254;50.968;5.366;2023-06-04T03:48:02;11.40;99.90
26623;DHT22;14254;50.968;5.366;2023-06-04T03:50:28;11.30;99.90
26623;DHT22;14254;50.968;5.366;2023-06-04T03:52:54;11.30;99.90
26623;DHT22;14254;50.968;5.366;2023-06-04T03:55:19;11.30;99.90
26623;DHT22;14254;50.968;5.366;2023-06-04T03:57:45;11.40;99.90
26623;DHT22;14254;50.968;5.366;2023-06-04T04:00:11;11.30;99.90
26623;DHT22;14254;50.968;5.366;2023-06-04T04:02:39;11.30;99.90
26623;DHT22;14254;50.968;5.366;2023-06-04T04:05:05;11.30;99.90
26623;DHT22;14254;50.968;5.366;2023-06-04T04:07:31;11.30;99.90
26623;DHT22;14254;50.968;5.366;2023-06-04T04:09:56;11.20;99.90
26623;DHT22;14254;50.968;5.366;2023-06-04T04:12:22;11.30;99.90
26623;DHT22;14254;50.968;5.366;2023-06-04T04:14:48;11.40;99.90
26623;DHT22;14254;50.968;5.366;2023-06-04T04:17:14;11.40;99.90
26623;DHT22;14254;50.968;5.366;2023-06-04T04:19:40;11.50;99.90
26623;DHT22;14254;50.968;5.366;2023-06-04T04:22:06;11.40;99.90
26623;DHT22;14254;50.968;5.366;2023-06-04T04:24:32;11.50;99.90
26623;DHT22;14254;50.968;5.366;2023-06-04T04:26:59;11.60;99.90
26623;DHT22;14254;50.968;5.366;2023-06-04T04:29:25;11.60;99.90
26623;DHT22;14254;50.968;5.366;2023-06-04T04:31:53;11.60;99.90
26623;DHT22;14254;50.968;5.366;2023-06-04T04:34:22;11.70;99.90
26623;DHT22;14254;50.968;5.366;2023-06-04T04:36:50;11.70;99.90
26623;DHT22;14254;50.968;5.366;2023-06-04T04:39:24;11.80;99.90
26623;DHT22;14254;50.968;5.366;2023-06-04T04:41:50;11.90;99.90
26623;DHT22;14254;50.968;5.366;2023-06-04T04:44:17;11.90;99.90
26623;DHT22;14254;50.968;5.366;2023-06-04T04:46:43;11.90;99.90
26623;DHT22;14254;50.968;5.366;2023-06-04T04:49:09;11.90;99.90
26623;DHT22;14254;50.968;5.366;2023-06-04T04:51:35;11.90;99.90
26623;DHT22;14254;50.968;5.366;2023-06-04T04:54:01;12.00;99.90
26623;DHT22;14254;50.968;5.366;2023-06-04T04:56:27;12.00;99.90
26623;DHT22;14254;50.968;5.366;2023-06-04T04:58:53;12.10;99.90
26623;DHT22;14254;50.968;5.366;2023-06-04T05:01:19;12.30;99.90
26623;DHT22;14254;50.968;5.366;2023-06-04T05:03:45;12.30;99.90
26623;DHT22;14254;50.968;5.366;2023-06-04T05:06:10;12.50;99.90
26623;DHT22;14254;50.968;5.366;2023-06-04T05:08:36;12.60;99.90
26623;DHT22;14254;50.968;5.366;2023-06-04T05:11:02;12.60;99.90
26623;DHT22;14254;50.968;5.366;2023-06-04T05:13:28;12.60;99.90
26623;DHT22;14254;50.968;5.366;2023-06-04T05:15:53;12.70;99.90
26623;DHT22;14254;50.968;5.366;2023-06-04T05:18:20;12.80;99.90
26623;DHT22;14254;50.968;5.366;2023-06-04T05:20:46;12.80;99.90
26623;DHT22;14254;50.968;5.366;2023-06-04T05:23:12;12.90;99.90
26623;DHT22;14254;50.968;5.366;2023-06-04T05:25:38;13.00;99.90
26623;DHT22;14254;50.968;5.366;2023-06-04T05:28:04;13.10;99.90
26623;DHT22;14254;50.968;5.366;2023-06-04T05:30:32;13.20;99.90
26623;DHT22;14254;50.968;5.366;2023-06-04T05:32:59;13.20;99.90
26623;DHT22;14254;50.968;5.366;2023-06-04T05:35:24;13.40;99.90
26623;DHT22;14254;50.968;5.366;2023-06-04T05:37:50;13.50;99.90
26623;DHT22;14254;50.968;5.366;2023-06-04T05:40:20;13.50;99.90
26623;DHT22;14254;50.968;5.366;2023-06-04T05:42:49;13.70;99.90
26623;DHT22;14254;50.968;5.366;2023-06-04T05:45:15;13.80;99.90
26623;DHT22;14254;50.968;5.366;2023-06-04T05:47:40;13.80;99.90
26623;DHT22;14254;50.968;5.366;2023-06-04T05:50:06;13.90;99.90
26623;DHT22;14254;50.968;5.366;2023-06-04T05:52:32;14.00;99.90
26623;DHT22;14254;50.968;5.366;2023-06-04T05:55:02;14.10;99.90
26623;DHT22;14254;50.968;5.366;2023-06-04T05:57:28;14.20;99.90
26623;DHT22;14254;50.968;5.366;2023-06-04T05:59:53;14.30;99.90
26623;DHT22;14254;50.968;5.366;2023-06-04T06:02:19;14.40;99.90
26623;DHT22;14254;50.968;5.366;2023-06-04T06:04:45;14.40;99.90
26623;DHT22;14254;50.968;5.366;2023-06-04T06:07:10;14.50;99.90
26623;DHT22;14254;50.968;5.366;2023-06-04T06:09:36;14.60;99.90
26623;DHT22;14254;50.968;5.366;2023-06-04T06:12:02;14.60;99.90
26623;DHT22;14254;50.968;5.366;2023-06-04T06:14:28;14.80;99.90
26623;DHT22;14254;50.968;5.366;2023-06-04T06:16:53;14.80;99.90
26623;DHT22;14254;50.968;5.366;2023-06-04T06:19:19;14.90;99.90
26623;DHT22;14254;50.968;5.366;2023-06-04T06:21:45;15.00;99.90
26623;DHT22;14254;50.968;5.366;2023-06-04T06:24:10;15.00;99.90
26623;DHT22;14254;50.968;5.366;2023-06-04T06:26:36;15.00;99.90
26623;DHT22;14254;50.968;5.366;2023-06-04T06:29:02;15.10;99.90
26623;DHT22;14254;50.968;5.366;2023-06-04T06:31:28;15.20;99.90
26623;DHT22;14254;50.968;5.366;2023-06-04T06:33:54;15.30;99.90
26623;DHT22;14254;50.968;5.366;2023-06-04T06:36:19;15.40;99.90
26623;DHT22;14254;50.968;5.366;2023-06-04T06:38:45;15.50;99.90
26623;DHT22;14254;50.968;5.366;2023-06-04T06:41:11;15.50;99.90
26623;DHT22;14254;50.968;5.366;2023-06-04T06:43:37;15.60;99.90
26623;DHT22;14254;50.968;5.366;2023-06-04T06:46:03;15.70;99.90
26623;DHT22;14254;50.968;5.366;2023-06-04T06:48:29;15.70;99.90
26623;DHT22;14254;50.968;5.366;2023-06-04T06:50:55;15.80;99.90
26623;DHT22;14254;50.968;5.366;2023-06-04T06:53:21;15.90;99.90
26623;DHT22;14254;50.968;5.366;2023-06-04T06:55:46;16.10;99.90
26623;DHT22;14254;50.968;5.366;2023-06-04T06:58:12;16.20;99.90
26623;DHT22;14254;50.968;5.366;2023-06-04T07:00:38;16.30;99.90
26623;DHT22;14254;50.968;5.366;2023-06-04T07:03:03;16.40;99.90
26623;DHT22;14254;50.968;5.366;2023-06-04T07:05:30;16.40;99.90
26623;DHT22;14254;50.968;5.366;2023-06-04T07:07:56;16.60;99.90
26623;DHT22;14254;50.968;5.366;2023-06-04T07:10:23;16.60;99.90
26623;DHT22;14254;50.968;5.366;2023-06-04T07:12:49;16.60;99.90
26623;DHT22;14254;50.968;5.366;2023-06-04T07:15:15;16.80;99.90
26623;DHT22;14254;50.968;5.366;2023-06-04T07:17:41;17.00;99.90
26623;DHT22;14254;50.968;5.366;2023-06-04T07:20:07;17.00;99.90
26623;DHT22;14254;50.968;5.366;2023-06-04T07:22:35;17.10;99.90
26623;DHT22;14254;50.968;5.366;2023-06-04T07:25:01;17.20;99.90
26623;DHT22;14254;50.968;5.366;2023-06-04T07:27:27;17.10;99.90
26623;DHT22;14254;50.968;5.366;2023-06-04T07:29:52;17.10;99.90
26623;DHT22;14254;50.968;5.366;2023-06-04T07:32:18;17.10;99.90
26623;DHT22;14254;50.968;5.366;2023-06-04T07:34:44;17.30;99.90
26623;DHT22;14254;50.968;5.366;2023-06-04T07:37:10;17.30;99.90
26623;DHT22;14254;50.968;5.366;2023-06-04T07:39:36;17.40;99.90
26623;DHT22;14254;50.968;5.366;2023-06-04T07:42:02;17.50;99.90
26623;DHT22;14254;50.968;5.366;2023-06-04T07:44:27;17.70;99.90
26623;DHT22;14254;50.968;5.366;2023-06-04T07:46:53;18.00;99.90
26623;DHT22;14254;50.968;5.366;2023-06-04T07:49:18;17.90;99.90
26623;DHT22;14254;50.968;5.366;2023-06-04T07:51:45;17.90;99.90
26623;DHT22;14254;50.968;5.366;2023-06-04T07:54:11;18.00;99.90
26623;DHT22;14254;50.968;5.366;2023-06-04T07:56:39;18.10;99.90
26623;DHT22;14254;50.968;5.366;2023-06-04T07:59:05;18.10;99.90
26623;DHT22;14254;50.968;5.366;2023-06-04T08:01:30;18.20;99.90
26623;DHT22;14254;50.968;5.366;2023-06-04T08:03:56;18.30;99.90
26623;DHT22;14254;50.968;5.366;2023-06-04T08:06:24;18.50;99.90
26623;DHT22;14254;50.968;5.366;2023-06-04T08:08:52;18.50;99.90
26623;DHT22;14254;50.968;5.366;2023-06-04T08:11:18;18.50;99.90
26623;DHT22;14254;50.968;5.366;2023-06-04T08:13:44;18.50;99.90
26623;DHT22;14254;50.968;5.366;2023-06-04T08:16:09;18.50;99.90
26623;DHT22;14254;50.968;5.366;2023-06-04T08:18:39;18.70;99.90
26623;DHT22;14254;50.968;5.366;2023-06-04T08:21:05;18.90;99.90
26623;DHT22;14254;50.968;5.366;2023-06-04T08:23:32;19.00;99.90
26623;DHT22;14254;50.968;5.366;2023-06-04T08:25:57;19.10;99.90
26623;DHT22;14254;50.968;5.366;2023-06-04T08:28:24;19.10;99.90
26623;DHT22;14254;50.968;5.366;2023-06-04T08:30:50;19.20;99.90
26623;DHT22;14254;50.968;5.366;2023-06-04T08:33:16;19.30;99.90
26623;DHT22;14254;50.968;5.366;2023-06-04T08:35:41;19.30;99.90
26623;DHT22;14254;50.968;5.366;2023-06-04T08:38:07;19.40;99.90
26623;DHT22;14254;50.968;5.366;2023-06-04T08:40:33;19.40;99.90
26623;DHT22;14254;50.968;5.366;2023-06-04T08:43:01;19.50;99.90
26623;DHT22;14254;50.968;5.366;2023-06-04T08:45:26;19.60;99.80
26623;DHT22;14254;50.968;5.366;2023-06-04T08:47:53;19.70;99.50
26623;DHT22;14254;50.968;5.366;2023-06-04T08:50:21;19.70;99.90
26623;DHT22;14254;50.968;5.366;2023-06-04T08:52:51;19.70;98.80
26623;DHT22;14254;50.968;5.366;2023-06-04T08:55:18;19.80;99.10
26623;DHT22;14254;50.968;5.366;2023-06-04T08:57:44;19.80;98.40
26623;DHT22;14254;50.968;5.366;2023-06-04T09:00:11;20.00;97.70
26623;DHT22;14254;50.968;5.366;2023-06-04T09:02:38;20.30;97.80
26623;DHT22;14254;50.968;5.366;2023-06-04T09:05:05;20.30;96.90
26623;DHT22;14254;50.968;5.366;2023-06-04T09:07:36;20.40;97.40
26623;DHT22;14254;50.968;5.366;2023-06-04T09:10:03;20.50;96.70
26623;DHT22;14254;50.968;5.366;2023-06-04T09:12:30;20.60;97.10
26623;DHT22;14254;50.968;5.366;2023-06-04T09:14:56;20.70;96.70
26623;DHT22;14254;50.968;5.366;2023-06-04T09:17:23;20.80;96.90
26623;DHT22;14254;50.968;5.366;2023-06-04T09:19:50;20.70;97.60
26623;DHT22;14254;50.968;5.366;2023-06-04T09:22:16;20.60;97.40
26623;DHT22;14254;50.968;5.366;2023-06-04T09:24:44;20.60;96.50
26623;DHT22;14254;50.968;5.366;2023-06-04T09:27:19;20.70;96.30
26623;DHT22;14254;50.968;5.366;2023-06-04T09:29:52;21.00;95.10
26623;DHT22;14254;50.968;5.366;2023-06-04T09:32:29;21.30;95.60
26623;DHT22;14254;50.968;5.366;2023-06-04T09:35:08;21.30;95.00
26623;DHT22;14254;50.968;5.366;2023-06-04T09:37:37;21.40;93.90
26623;DHT22;14254;50.968;5.366;2023-06-04T09:40:03;21.40;95.60
26623;DHT22;14254;50.968;5.366;2023-06-04T09:42:30;21.60;95.80
26623;DHT22;14254;50.968;5.366;2023-06-04T09:45:07;21.80;95.10
26623;DHT22;14254;50.968;5.366;2023-06-04T09:47:43;21.90;94.60
26623;DHT22;14254;50.968;5.366;2023-06-04T09:50:11;21.80;93.90
26623;DHT22;14254;50.968;5.366;2023-06-04T09:52:37;21.70;94.90
26623;DHT22;14254;50.968;5.366;2023-06-04T09:55:15;21.40;93.30
26623;DHT22;14254;50.968;5.366;2023-06-04T09:57:46;21.50;93.60
26623;DHT22;14254;50.968;5.366;2023-06-04T10:00:16;21.70;93.60
26623;DHT22;14254;50.968;5.366;2023-06-04T10:02:43;21.90;92.60
26623;DHT22;14254;50.968;5.366;2023-06-04T10:05:10;22.00;92.30
26623;DHT22;14254;50.968;5.366;2023-06-04T10:07:43;21.80;91.60
26623;DHT22;14254;50.968;5.366;2023-06-04T10:10:22;21.60;91.30
26623;DHT22;14254;50.968;5.366;2023-06-04T10:13:00;21.90;93.40
26623;DHT22;14254;50.968;5.366;2023-06-04T10:15:27;22.30;92.20
26623;DHT22;14254;50.968;5.366;2023-06-04T10:17:54;22.30;90.80
26623;DHT22;14254;50.968;5.366;2023-06-04T10:20:21;22.20;91.30
26623;DHT22;14254;50.968;5.366;2023-06-04T10:22:48;22.20;91.90
26623;DHT22;14254;50.968;5.366;2023-06-04T10:25:15;22.00;91.40
26623;DHT22;14254;50.968;5.366;2023-06-04T10:27:42;22.10;91.50
26623;DHT22;14254;50.968;5.366;2023-06-04T10:30:08;22.00;90.80
26623;DHT22;14254;50.968;5.366;2023-06-04T10:32:34;22.00;91.60
26623;DHT22;14254;50.968;5.366;2023-06-04T10:35:06;22.20;93.10
26623;DHT22;14254;50.968;5.366;2023-06-04T10:37:35;22.40;90.40
26623;DHT22;14254;50.968;5.366;2023-06-04T10:40:01;22.20;90.60
26623;DHT22;14254;50.968;5.366;2023-06-04T10:42:38;22.50;91.20
26623;DHT22;14254;50.968;5.366;2023-06-04T10:45:05;22.90;91.40
26623;DHT22;14254;50.968;5.366;2023-06-04T10:47:32;23.00;90.40
26623;DHT22;14254;50.968;5.366;2023-06-04T10:50:10;23.10;91.90
26623;DHT22;14254;50.968;5.366;2023-06-04T10:52:37;23.20;90.00
26623;DHT22;14254;50.968;5.366;2023-06-04T10:55:04;23.40;89.50
26623;DHT22;14254;50.968;5.366;2023-06-04T10:57:31;23.60;91.10
26623;DHT22;14254;50.968;5.366;2023-06-04T10:59:58;23.80;90.60
26623;DHT22;14254;50.968;5.366;2023-06-04T11:02:24;23.90;90.90
26623;DHT22;14254;50.968;5.366;2023-06-04T11:05:01;24.10;91.50
26623;DHT22;14254;50.968;5.366;2023-06-04T11:07:41;23.70;90.60
26623;DHT22;14254;50.968;5.366;2023-06-04T11:10:07;23.30;90.00
26623;DHT22;14254;50.968;5.366;2023-06-04T11:12:50;23.10;89.40
26623;DHT22;14254;50.968;5.366;2023-06-04T11:15:16;23.20;87.70
26623;DHT22;14254;50.968;5.366;2023-06-04T11:17:49;23.10;88.90
26623;DHT22;14254;50.968;5.366;2023-06-04T11:20:17;23.10;90.20
26623;DHT22;14254;50.968;5.366;2023-06-04T11:22:53;23.50;90.30
26623;DHT22;14254;50.968;5.366;2023-06-04T11:25:20;23.60;87.30
26623;DHT22;14254;50.968;5.366;2023-06-04T11:27:48;23.70;90.40
26623;DHT22;14254;50.968;5.366;2023-06-04T11:30:14;23.70;84.40
26623;DHT22;14254;50.968;5.366;2023-06-04T11:32:40;23.80;86.00
26623;DHT22;14254;50.968;5.366;2023-06-04T11:35:06;24.00;83.40
26623;DHT22;14254;50.968;5.366;2023-06-04T11:37:33;25.20;84.50
26623;DHT22;14254;50.968;5.366;2023-06-04T11:39:59;26.50;77.10
26623;DHT22;14254;50.968;5.366;2023-06-04T11:42:27;27.60;77.00
26623;DHT22;14254;50.968;5.366;2023-06-04T11:44:56;30.00;70.70
26623;DHT22;14254;50.968;5.366;2023-06-04T11:47:23;31.50;66.70
26623;DHT22;14254;50.968;5.366;2023-06-04T11:49:56;33.20;61.90
26623;DHT22;14254;50.968;5.366;2023-06-04T11:52:22;34.50;58.00
26623;DHT22;14254;50.968;5.366;2023-06-04T11:54:48;34.20;55.60
26623;DHT22;14254;50.968;5.366;2023-06-04T11:57:14;31.70;55.20
26623;DHT22;14254;50.968;5.366;2023-06-04T11:59:41;31.40;56.80
26623;DHT22;14254;50.968;5.366;2023-06-04T12:02:07;30.20;55.90
26623;DHT22;14254;50.968;5.366;2023-06-04T12:04:33;30.20;58.00
26623;DHT22;14254;50.968;5.366;2023-06-04T12:07:01;31.00;57.10
26623;DHT22;14254;50.968;5.366;2023-06-04T12:09:31;30.20;58.70
26623;DHT22;14254;50.968;5.366;2023-06-04T12:12:01;31.20;56.70
26623;DHT22;14254;50.968;5.366;2023-06-04T12:14:28;29.90;56.50
26623;DHT22;14254;50.968;5.366;2023-06-04T12:17:02;29.90;58.40
26623;DHT22;14254;50.968;5.366;2023-06-04T12:19:28;30.30;57.10
26623;DHT22;14254;50.968;5.366;2023-06-04T12:22:02;29.80;55.30
26623;DHT22;14254;50.968;5.366;2023-06-04T12:24:28;30.20;55.20
26623;DHT22;14254;50.968;5.366;2023-06-04T12:27:09;30.90;53.50
26623;DHT22;14254;50.968;5.366;2023-06-04T12:29:35;30.50;52.80
26623;DHT22;14254;50.968;5.366;2023-06-04T12:32:08;30.70;54.10
26623;DHT22;14254;50.968;5.366;2023-06-04T12:34:35;29.90;55.00
26623;DHT22;14254;50.968;5.366;2023-06-04T12:37:01;30.20;53.60
26623;DHT22;14254;50.968;5.366;2023-06-04T12:39:29;30.70;52.40
26623;DHT22;14254;50.968;5.366;2023-06-04T12:41:55;31.60;52.10
26623;DHT22;14254;50.968;5.366;2023-06-04T12:44:20;30.30;50.60
26623;DHT22;14254;50.968;5.366;2023-06-04T12:46:47;29.90;52.10
26623;DHT22;14254;50.968;5.366;2023-06-04T12:49:12;29.60;51.30
26623;DHT22;14254;50.968;5.366;2023-06-04T12:51:38;30.50;51.40
26623;DHT22;14254;50.968;5.366;2023-06-04T12:54:04;31.40;50.30
26623;DHT22;14254;50.968;5.366;2023-06-04T12:56:30;32.60;51.50
26623;DHT22;14254;50.968;5.366;2023-06-04T12:58:56;32.50;49.40
26623;DHT22;14254;50.968;5.366;2023-06-04T13:01:22;32.60;50.40
26623;DHT22;14254;50.968;5.366;2023-06-04T13:03:48;32.30;50.40
26623;DHT22;14254;50.968;5.366;2023-06-04T13:06:13;33.60;48.30
26623;DHT22;14254;50.968;5.366;2023-06-04T13:08:39;33.70;47.50
26623;DHT22;14254;50.968;5.366;2023-06-04T13:11:05;34.80;47.60
26623;DHT22;14254;50.968;5.366;2023-06-04T13:13:31;32.50;48.90
26623;DHT22;14254;50.968;5.366;2023-06-04T13:15:57;32.20;50.00
26623;DHT22;14254;50.968;5.366;2023-06-04T13:18:23;32.60;48.00
26623;DHT22;14254;50.968;5.366;2023-06-04T13:20:48;33.30;48.40
26623;DHT22;14254;50.968;5.366;2023-06-04T13:23:14;34.30;47.20
26623;DHT22;14254;50.968;5.366;2023-06-04T13:25:40;33.80;46.90
26623;DHT22;14254;50.968;5.366;2023-06-04T13:28:06;34.10;45.00
26623;DHT22;14254;50.968;5.366;2023-06-04T13:30:35;33.60;45.90
26623;DHT22;14254;50.968;5.366;2023-06-04T13:33:01;32.80;46.30
26623;DHT22;14254;50.968;5.366;2023-06-04T13:35:26;32.80;48.60
26623;DHT22;14254;50.968;5.366;2023-06-04T13:37:52;32.70;47.60
26623;DHT22;14254;50.968;5.366;2023-06-04T13:40:18;34.30;46.30
26623;DHT22;14254;50.968;5.366;2023-06-04T13:42:45;34.90;44.30
26623;DHT22;14254;50.968;5.366;2023-06-04T13:45:10;34.00;45.30
26623;DHT22;14254;50.968;5.366;2023-06-04T13:47:36;34.10;46.40
26623;DHT22;14254;50.968;5.366;2023-06-04T13:50:02;34.80;45.60
26623;DHT22;14254;50.968;5.366;2023-06-04T13:52:29;35.50;44.10
26623;DHT22;14254;50.968;5.366;2023-06-04T13:54:54;35.60;42.50
26623;DHT22;14254;50.968;5.366;2023-06-04T13:57:21;35.30;44.40
26623;DHT22;14254;50.968;5.366;2023-06-04T13:59:46;35.40;43.20
26623;DHT22;14254;50.968;5.366;2023-06-04T14:02:12;36.10;42.70
26623;DHT22;14254;50.968;5.366;2023-06-04T14:04:38;35.80;43.90
26623;DHT22;14254;50.968;5.366;2023-06-04T14:07:04;34.70;44.30
26623;DHT22;14254;50.968;5.366;2023-06-04T14:09:31;34.60;46.00
26623;DHT22;14254;50.968;5.366;2023-06-04T14:11:58;33.70;46.00
26623;DHT22;14254;50.968;5.366;2023-06-04T14:14:23;32.50;45.20
26623;DHT22;14254;50.968;5.366;2023-06-04T14:16:49;32.40;46.10
26623;DHT22;14254;50.968;5.366;2023-06-04T14:19:15;32.90;44.00
26623;DHT22;14254;50.968;5.366;2023-06-04T14:21:42;33.60;44.40
26623;DHT22;14254;50.968;5.366;2023-06-04T14:24:08;34.50;43.70
26623;DHT22;14254;50.968;5.366;2023-06-04T14:26:35;34.20;42.90
26623;DHT22;14254;50.968;5.366;2023-06-04T14:29:01;33.40;45.30
26623;DHT22;14254;50.968;5.366;2023-06-04T14:31:27;33.10;44.70
26623;DHT22;14254;50.968;5.366;2023-06-04T14:33:52;32.60;43.30
26623;DHT22;14254;50.968;5.366;2023-06-04T14:36:18;32.30;44.40
26623;DHT22;14254;50.968;5.366;2023-06-04T14:38:44;32.70;44.80
26623;DHT22;14254;50.968;5.366;2023-06-04T14:41:10;31.80;46.60
26623;DHT22;14254;50.968;5.366;2023-06-04T14:43:36;33.10;43.80
26623;DHT22;14254;50.968;5.366;2023-06-04T14:46:02;34.20;43.80
26623;DHT22;14254;50.968;5.366;2023-06-04T14:48:27;36.90;41.50
26623;DHT22;14254;50.968;5.366;2023-06-04T14:50:53;38.60;40.20
26623;DHT22;14254;50.968;5.366;2023-06-04T14:53:22;37.80;40.20
26623;DHT22;14254;50.968;5.366;2023-06-04T14:55:48;35.40;40.50
26623;DHT22;14254;50.968;5.366;2023-06-04T14:58:15;34.40;42.90
26623;DHT22;14254;50.968;5.366;2023-06-04T15:00:44;34.00;41.00
26623;DHT22;14254;50.968;5.366;2023-06-04T15:03:10;34.80;41.10
26623;DHT22;14254;50.968;5.366;2023-06-04T15:05:36;33.80;42.50
26623;DHT22;14254;50.968;5.366;2023-06-04T15:08:02;33.10;43.70
26623;DHT22;14254;50.968;5.366;2023-06-04T15:10:31;32.90;42.70
26623;DHT22;14254;50.968;5.366;2023-06-04T15:12:59;33.70;44.10
26623;DHT22;14254;50.968;5.366;2023-06-04T15:15:25;33.20;43.10
26623;DHT22;14254;50.968;5.366;2023-06-04T15:17:51;33.10;43.50
26623;DHT22;14254;50.968;5.366;2023-06-04T15:20:17;33.30;43.10
26623;DHT22;14254;50.968;5.366;2023-06-04T15:22:42;32.30;43.80
26623;DHT22;14254;50.968;5.366;2023-06-04T15:25:08;32.00;42.60
26623;DHT22;14254;50.968;5.366;2023-06-04T15:27:34;33.30;42.90
26623;DHT22;14254;50.968;5.366;2023-06-04T15:30:00;34.70;41.10
26623;DHT22;14254;50.968;5.366;2023-06-04T15:32:26;33.30;43.10